createdAt,value
2019-01-09T00:00:38.473Z,5.30
2019-01-09T00:03:04.512Z,5.20
2019-01-09T00:05:30.568Z,5.20
2019-01-09T00:07:56.683Z,5.20
2019-01-09T00:10:22.708Z,5.10
2019-01-09T00:12:48.743Z,5.10
2019-01-09T00:15:14.782Z,5.00
2019-01-09T00:17:40.811Z,4.80
2019-01-09T00:20:06.830Z,4.70
2019-01-09T00:22:32.941Z,4.70
2019-01-09T00:24:58.964Z,4.70
2019-01-09T00:27:25.024Z,4.80
2019-01-09T00:29:51.086Z,4.80
2019-01-09T00:32:17.237Z,4.80
2019-01-09T00:34:43.260Z,4.80
2019-01-09T00:37:09.282Z,4.80
2019-01-09T00:39:35.330Z,4.70
2019-01-09T00:42:01.344Z,4.70
2019-01-09T00:44:27.380Z,4.60
2019-01-09T00:46:53.506Z,4.60
2019-01-09T00:49:19.599Z,4.60
2019-01-09T00:51:45.784Z,4.60
2019-01-09T00:54:11.813Z,4.70
2019-01-09T00:56:37.865Z,4.70
2019-01-09T00:59:03.895Z,4.60
2019-01-09T01:01:29.938Z,4.60
2019-01-09T01:04:05.801Z,4.60
2019-01-09T01:06:50.686Z,4.50
2019-01-09T01:09:20.503Z,4.50
2019-01-09T01:12:22.287Z,4.40
2019-01-09T01:15:25.819Z,4.40
2019-01-09T01:18:25.800Z,4.40
2019-01-09T01:21:19.364Z,4.00
2019-01-09T01:24:07.545Z,3.80
2019-01-09T01:27:02.718Z,3.70
2019-01-09T01:30:01.715Z,3.70
2019-01-09T01:32:46.541Z,3.70
2019-01-09T01:35:25.343Z,3.80
2019-01-09T01:38:01.213Z,3.80
2019-01-09T01:40:59.551Z,3.70
2019-01-09T01:43:32.188Z,3.70
2019-01-09T01:46:05.224Z,3.60
2019-01-09T01:48:52.880Z,3.60
2019-01-09T01:51:51.517Z,3.60
2019-01-09T01:54:30.770Z,3.60
2019-01-09T01:57:17.047Z,3.50
2019-01-09T01:59:46.898Z,3.50
2019-01-09T02:02:47.241Z,3.60
2019-01-09T02:05:17.072Z,3.70
2019-01-09T02:08:18.902Z,3.80
2019-01-09T02:11:05.444Z,3.80
2019-01-09T02:13:59.564Z,3.90
2019-01-09T02:16:41.461Z,3.90
2019-01-09T02:19:11.328Z,4.00
2019-01-09T02:21:58.283Z,4.00
2019-01-09T02:24:28.112Z,4.00
2019-01-09T02:27:01.055Z,4.00
2019-01-09T02:29:54.199Z,4.10
2019-01-09T02:32:28.042Z,4.00
2019-01-09T02:34:54.067Z,4.00
2019-01-09T02:37:20.099Z,3.90
2019-01-09T02:39:46.128Z,3.80
2019-01-09T02:42:12.209Z,3.70
2019-01-09T02:44:38.253Z,3.60
2019-01-09T02:47:04.304Z,3.60
2019-01-09T02:49:30.320Z,3.60
2019-01-09T02:51:56.348Z,3.50
2019-01-09T02:54:22.411Z,3.50
2019-01-09T02:56:48.469Z,3.60
2019-01-09T02:59:14.512Z,3.60
2019-01-09T03:01:40.539Z,3.70
2019-01-09T03:04:06.564Z,3.80
2019-01-09T03:06:32.588Z,3.80
2019-01-09T03:08:58.653Z,3.80
2019-01-09T03:11:24.689Z,3.80
2019-01-09T03:13:50.720Z,3.80
2019-01-09T03:16:16.775Z,3.80
2019-01-09T03:18:42.821Z,3.90
2019-01-09T03:21:08.837Z,4.00
2019-01-09T03:23:34.885Z,3.90
2019-01-09T03:26:00.912Z,3.90
2019-01-09T03:28:26.972Z,3.90
2019-01-09T03:30:53.207Z,3.90
2019-01-09T03:33:19.461Z,3.90
2019-01-09T03:35:45.498Z,4.00
2019-01-09T03:38:11.525Z,3.80
2019-01-09T03:40:37.608Z,3.90
2019-01-09T03:43:03.635Z,4.00
2019-01-09T03:45:29.660Z,4.00
2019-01-09T03:47:55.709Z,4.10
2019-01-09T03:50:21.736Z,4.10
2019-01-09T03:52:47.776Z,4.00
2019-01-09T03:55:13.792Z,4.00
2019-01-09T03:57:39.845Z,4.00
2019-01-09T04:00:06.384Z,4.10
2019-01-09T04:02:32.446Z,4.10
2019-01-09T04:04:58.463Z,4.10
2019-01-09T04:07:24.536Z,4.20
2019-01-09T04:09:50.551Z,4.20
2019-01-09T04:12:16.569Z,4.20
2019-01-09T04:14:42.629Z,4.20
2019-01-09T04:17:08.647Z,4.20
2019-01-09T04:19:34.716Z,4.20
2019-01-09T04:22:00.737Z,4.20
2019-01-09T04:24:26.788Z,4.20
2019-01-09T04:26:52.823Z,4.30
2019-01-09T04:29:18.863Z,4.40
2019-01-09T04:31:44.940Z,4.50
2019-01-09T04:34:10.969Z,4.60
2019-01-09T04:36:37.025Z,4.60
2019-01-09T04:39:04.140Z,4.50
2019-01-09T04:41:30.192Z,4.40
2019-01-09T04:43:56.215Z,4.30
2019-01-09T04:46:22.259Z,4.20
2019-01-09T04:48:48.296Z,4.10
2019-01-09T04:51:14.360Z,4.00
2019-01-09T04:53:40.406Z,4.10
2019-01-09T04:56:06.421Z,4.00
2019-01-09T04:58:32.467Z,4.10
2019-01-09T05:00:58.522Z,4.10
2019-01-09T05:03:24.555Z,4.10
2019-01-09T05:05:50.629Z,4.10
2019-01-09T05:08:16.654Z,4.00
2019-01-09T05:10:42.695Z,3.80
2019-01-09T05:13:08.720Z,3.70
2019-01-09T05:15:34.767Z,3.50
2019-01-09T05:18:00.812Z,3.40
2019-01-09T05:20:27.882Z,3.30
2019-01-09T05:22:53.933Z,3.20
2019-01-09T05:25:20.162Z,3.20
2019-01-09T05:27:46.187Z,3.10
2019-01-09T05:30:13.107Z,3.10
2019-01-09T05:32:39.148Z,3.00
2019-01-09T05:35:05.173Z,3.00
2019-01-09T05:37:31.212Z,3.00
2019-01-09T05:39:57.225Z,2.90
2019-01-09T05:42:23.379Z,2.90
2019-01-09T05:44:49.424Z,2.80
2019-01-09T05:47:15.448Z,2.90
2019-01-09T05:49:41.504Z,2.80
2019-01-09T05:52:07.547Z,2.80
2019-01-09T05:54:33.576Z,2.70
2019-01-09T05:56:59.607Z,2.80
2019-01-09T05:59:25.709Z,2.90
2019-01-09T06:01:51.879Z,3.00
2019-01-09T06:04:17.922Z,3.00
2019-01-09T06:06:43.967Z,3.00
2019-01-09T06:09:10.380Z,3.00
2019-01-09T06:11:36.395Z,3.10
2019-01-09T06:14:02.428Z,3.10
2019-01-09T06:16:28.479Z,3.30
2019-01-09T06:19:14.610Z,3.40
2019-01-09T06:21:40.674Z,3.30
2019-01-09T06:24:07.772Z,3.60
2019-01-09T06:26:33.975Z,3.60
2019-01-09T06:29:00.012Z,3.60
2019-01-09T06:31:26.087Z,3.60
2019-01-09T06:33:52.159Z,3.60
2019-01-09T06:36:18.261Z,3.60
2019-01-09T06:38:44.310Z,3.50
2019-01-09T06:41:10.388Z,3.40
2019-01-09T06:43:36.464Z,3.40
2019-01-09T06:46:02.509Z,3.30
2019-01-09T06:48:28.551Z,3.20
2019-01-09T06:50:54.639Z,3.10
2019-01-09T06:53:20.712Z,3.00
2019-01-09T06:55:46.960Z,2.90
2019-01-09T06:58:13.044Z,2.80
2019-01-09T07:00:39.111Z,2.70
2019-01-09T07:03:05.132Z,2.70
2019-01-09T07:05:31.167Z,2.70
2019-01-09T07:07:57.232Z,2.70
2019-01-09T07:10:23.321Z,2.60
2019-01-09T07:12:49.381Z,2.60
2019-01-09T07:15:15.378Z,2.60
2019-01-09T07:17:41.427Z,2.60
2019-01-09T07:20:07.446Z,2.70
2019-01-09T07:22:33.495Z,2.60
2019-01-09T07:24:59.545Z,2.60
2019-01-09T07:27:25.676Z,2.60
2019-01-09T07:29:51.696Z,2.60
2019-01-09T07:32:17.759Z,2.60
2019-01-09T07:34:43.811Z,2.60
2019-01-09T07:37:09.857Z,2.50
2019-01-09T07:39:35.914Z,2.50
2019-01-09T07:42:01.972Z,2.50
2019-01-09T07:44:27.989Z,2.50
2019-01-09T07:46:54.028Z,2.50
2019-01-09T07:49:20.047Z,2.60
2019-01-09T07:51:46.100Z,2.60
2019-01-09T07:54:12.158Z,2.60
2019-01-09T07:56:38.200Z,2.70
2019-01-09T07:59:04.253Z,2.70
2019-01-09T08:01:30.284Z,2.70
2019-01-09T08:03:56.336Z,2.70
2019-01-09T08:06:22.373Z,2.70
2019-01-09T08:08:48.420Z,2.70
2019-01-09T08:11:14.444Z,2.70
2019-01-09T08:13:40.477Z,3.00
2019-01-09T08:16:06.515Z,3.20
2019-01-09T08:18:32.554Z,3.50
2019-01-09T08:21:05.292Z,3.60
2019-01-09T08:23:26.544Z,3.90
2019-01-09T08:25:52.612Z,4.10
2019-01-09T08:28:18.650Z,4.20
2019-01-09T08:30:44.716Z,4.40
2019-01-09T08:33:10.788Z,4.50
2019-01-09T08:35:36.828Z,4.20
2019-01-09T08:38:03.306Z,4.60
2019-01-09T08:40:29.392Z,4.70
2019-01-09T08:43:15.323Z,4.80
2019-01-09T08:45:41.373Z,5.00
2019-01-09T08:48:07.425Z,5.00
2019-01-09T08:50:33.483Z,5.00
2019-01-09T08:52:59.520Z,5.20
2019-01-09T08:55:25.601Z,5.30
2019-01-09T08:57:51.621Z,5.40
2019-01-09T09:00:17.669Z,5.40
2019-01-09T09:02:43.771Z,5.50
2019-01-09T09:05:09.842Z,5.50
2019-01-09T09:07:35.857Z,5.60
2019-01-09T09:10:03.906Z,5.60
2019-01-09T09:12:29.930Z,5.50
2019-01-09T09:14:55.980Z,5.50
2019-01-09T09:17:22.003Z,5.50
2019-01-09T09:19:48.083Z,5.50
2019-01-09T09:22:14.128Z,5.40
2019-01-09T09:24:40.151Z,5.50
2019-01-09T09:27:06.203Z,5.50
2019-01-09T09:29:32.233Z,5.40
2019-01-09T09:31:58.356Z,5.40
2019-01-09T09:34:24.422Z,5.30
2019-01-09T09:36:50.480Z,5.40
2019-01-09T09:39:16.511Z,5.40
2019-01-09T09:41:42.548Z,5.30
2019-01-09T09:44:08.584Z,5.20
2019-01-09T09:46:34.632Z,5.20
2019-01-09T09:49:00.660Z,5.10
2019-01-09T09:51:26.684Z,5.10
2019-01-09T09:53:52.735Z,5.00
2019-01-09T09:56:18.772Z,5.00
2019-01-09T09:58:44.833Z,5.10
2019-01-09T10:01:10.900Z,5.20
2019-01-09T10:03:37.056Z,5.30
2019-01-09T10:06:03.083Z,5.40
2019-01-09T10:08:29.749Z,5.50
2019-01-09T10:10:55.900Z,5.60
2019-01-09T10:13:21.956Z,5.70
2019-01-09T10:15:48.757Z,5.60
2019-01-09T10:18:14.940Z,5.60
2019-01-09T10:20:40.967Z,5.60
2019-01-09T10:23:07.006Z,5.60
2019-01-09T10:25:33.041Z,5.80
2019-01-09T10:27:59.116Z,5.90
2019-01-09T10:30:25.156Z,6.10
2019-01-09T10:32:51.218Z,6.00
2019-01-09T10:35:17.248Z,6.00
2019-01-09T10:37:44.012Z,6.00
2019-01-09T10:40:12.984Z,6.00
2019-01-09T10:42:39.024Z,6.20
2019-01-09T10:45:08.164Z,6.20
2019-01-09T10:47:34.229Z,6.00
2019-01-09T10:50:00.290Z,6.00
2019-01-09T10:52:26.403Z,6.00
2019-01-09T10:54:52.449Z,6.00
2019-01-09T10:57:18.517Z,5.90
2019-01-09T10:59:44.544Z,5.90
2019-01-09T11:02:10.682Z,5.70
2019-01-09T11:04:36.699Z,5.80
2019-01-09T11:07:02.748Z,5.90
2019-01-09T11:09:28.776Z,6.20
2019-01-09T11:11:54.836Z,6.60
2019-01-09T11:14:20.856Z,6.80
2019-01-09T11:16:46.908Z,7.00
2019-01-09T11:19:12.921Z,7.10
2019-01-09T11:21:38.945Z,7.00
2019-01-09T11:24:04.989Z,7.20
2019-01-09T11:26:31.017Z,7.20
2019-01-09T11:28:57.068Z,7.00
2019-01-09T11:31:23.127Z,6.90
2019-01-09T11:33:49.167Z,6.90
2019-01-09T11:36:15.216Z,6.70
2019-01-09T11:38:41.241Z,6.60
2019-01-09T11:41:07.292Z,6.40
2019-01-09T11:43:33.340Z,6.30
2019-01-09T11:45:59.388Z,6.40
2019-01-09T11:48:25.503Z,6.50
2019-01-09T11:50:52.642Z,6.70
2019-01-09T11:53:18.737Z,6.70
2019-01-09T11:55:44.775Z,6.90
2019-01-09T11:58:10.856Z,7.10
2019-01-09T12:00:36.981Z,7.30
2019-01-09T12:03:03.059Z,7.30
2019-01-09T12:05:29.087Z,7.40
2019-01-09T12:07:55.221Z,7.60
2019-01-09T12:10:29.837Z,7.50
2019-01-09T12:12:50.582Z,7.50
2019-01-09T12:15:17.338Z,7.20
2019-01-09T12:17:43.400Z,6.90
2019-01-09T12:20:12.033Z,6.80
2019-01-09T12:22:38.095Z,6.70
2019-01-09T12:25:05.822Z,6.50
2019-01-09T12:27:31.887Z,6.20
2019-01-09T12:29:57.931Z,6.10
2019-01-09T12:32:23.974Z,5.80
2019-01-09T12:34:49.996Z,5.70
2019-01-09T12:37:16.048Z,5.70
2019-01-09T12:39:42.079Z,5.80
2019-01-09T12:42:08.195Z,5.90
2019-01-09T12:44:34.289Z,6.20
2019-01-09T12:47:00.359Z,6.50
2019-01-09T12:49:26.407Z,6.70
2019-01-09T12:51:52.472Z,6.70
2019-01-09T12:54:18.496Z,6.80
2019-01-09T12:56:44.520Z,6.90
2019-01-09T12:59:10.570Z,7.00
2019-01-09T13:01:36.699Z,7.20
2019-01-09T13:04:02.813Z,7.00
2019-01-09T13:06:28.875Z,7.20
2019-01-09T13:08:54.903Z,7.30
2019-01-09T13:11:20.972Z,7.30
2019-01-09T13:13:47.004Z,7.00
2019-01-09T13:16:13.056Z,7.00
2019-01-09T13:18:39.102Z,6.70
2019-01-09T13:21:05.131Z,6.60
2019-01-09T13:23:31.196Z,6.70
2019-01-09T13:25:57.286Z,6.60
2019-01-09T13:28:23.349Z,6.40
2019-01-09T13:30:49.375Z,6.40
2019-01-09T13:33:15.427Z,6.30
2019-01-09T13:35:41.453Z,6.40
2019-01-09T13:38:07.512Z,6.50
2019-01-09T13:40:34.429Z,6.50
2019-01-09T13:43:00.715Z,6.60
2019-01-09T13:45:26.791Z,6.70
2019-01-09T13:47:52.863Z,6.60
2019-01-09T13:50:18.950Z,6.60
2019-01-09T13:52:45.044Z,6.50
2019-01-09T13:55:12.911Z,6.40
2019-01-09T13:57:38.927Z,6.20
2019-01-09T14:00:08.793Z,6.10
2019-01-09T14:02:34.926Z,6.10
2019-01-09T14:05:00.980Z,6.10
2019-01-09T14:07:27.028Z,6.30
2019-01-09T14:09:53.051Z,6.30
2019-01-09T14:12:19.105Z,6.30
2019-01-09T14:14:45.141Z,6.10
2019-01-09T14:17:11.184Z,6.10
2019-01-09T14:19:37.200Z,6.10
2019-01-09T14:22:03.250Z,6.10
2019-01-09T14:24:29.279Z,6.00
2019-01-09T14:26:55.353Z,6.00
2019-01-09T14:29:21.432Z,5.80
2019-01-09T14:31:47.500Z,5.80
2019-01-09T14:34:13.559Z,5.80
2019-01-09T14:36:39.624Z,5.80
2019-01-09T14:39:05.683Z,5.90
2019-01-09T14:41:31.709Z,6.00
2019-01-09T14:43:57.755Z,6.00
2019-01-09T14:46:23.798Z,5.90
2019-01-09T14:48:49.846Z,5.90
2019-01-09T14:51:15.869Z,5.90
2019-01-09T14:53:41.911Z,5.70
2019-01-09T14:56:07.948Z,5.70
2019-01-09T14:58:34.019Z,5.60
2019-01-09T15:01:19.938Z,5.60
2019-01-09T15:03:46.119Z,5.60
2019-01-09T15:06:12.304Z,5.60
2019-01-09T15:08:38.324Z,5.50
2019-01-09T15:11:04.376Z,5.50
2019-01-09T15:13:30.401Z,5.50
2019-01-09T15:15:56.752Z,5.50
2019-01-09T15:18:22.895Z,5.60
2019-01-09T15:20:48.946Z,5.60
2019-01-09T15:23:15.088Z,5.70
2019-01-09T15:25:41.151Z,5.60
2019-01-09T15:28:07.200Z,5.60
2019-01-09T15:30:33.285Z,5.60
2019-01-09T15:32:59.312Z,5.50
2019-01-09T15:35:25.376Z,5.60
2019-01-09T15:37:51.408Z,5.50
2019-01-09T15:40:20.468Z,5.60
2019-01-09T15:42:48.604Z,5.50
2019-01-09T15:45:14.687Z,5.40
2019-01-09T15:47:40.793Z,5.20
2019-01-09T15:50:12.305Z,5.10
2019-01-09T15:52:38.331Z,5.20
2019-01-09T15:55:07.896Z,5.30
2019-01-09T15:57:33.921Z,5.40
2019-01-09T15:59:59.974Z,5.40
2019-01-09T16:02:26.039Z,5.50
2019-01-09T16:04:52.059Z,5.60
2019-01-09T16:07:18.134Z,5.60
2019-01-09T16:09:44.190Z,5.70
2019-01-09T16:12:10.210Z,5.40
2019-01-09T16:14:36.256Z,5.10
2019-01-09T16:17:02.301Z,5.00
2019-01-09T16:19:48.216Z,4.90
2019-01-09T16:22:14.270Z,4.60
2019-01-09T16:24:40.326Z,4.70
2019-01-09T16:27:06.410Z,4.60
2019-01-09T16:29:33.927Z,4.60
2019-01-09T16:32:00.357Z,4.50
2019-01-09T16:34:26.523Z,4.50
2019-01-09T16:36:52.657Z,4.50
2019-01-09T16:39:18.688Z,4.50
2019-01-09T16:41:44.779Z,4.60
2019-01-09T16:44:11.021Z,4.60
2019-01-09T16:46:37.686Z,4.70
2019-01-09T16:49:04.026Z,4.70
2019-01-09T16:51:30.559Z,4.70
2019-01-09T16:53:56.914Z,4.70
2019-01-09T16:56:23.499Z,4.70
2019-01-09T16:58:50.030Z,4.70
2019-01-09T17:01:16.391Z,4.60
2019-01-09T17:03:42.697Z,4.60
2019-01-09T17:06:10.070Z,4.70
2019-01-09T17:08:36.499Z,4.60
2019-01-09T17:11:03.202Z,4.50
2019-01-09T17:13:29.896Z,4.30
2019-01-09T17:15:58.271Z,4.10
2019-01-09T17:18:24.913Z,4.10
2019-01-09T17:20:51.235Z,4.10
2019-01-09T17:23:17.719Z,4.20
2019-01-09T17:25:44.143Z,4.30
2019-01-09T17:28:10.816Z,4.40
2019-01-09T17:30:37.333Z,4.50
2019-01-09T17:33:04.022Z,4.60
2019-01-09T17:35:30.665Z,4.70
2019-01-09T17:37:56.817Z,4.70
2019-01-09T17:40:23.475Z,4.80
2019-01-09T17:42:50.089Z,4.80
2019-01-09T17:45:16.703Z,4.80
2019-01-09T17:47:42.993Z,4.90
2019-01-09T17:50:18.748Z,4.80
2019-01-09T17:52:44.803Z,4.90
2019-01-09T17:55:11.993Z,4.90
2019-01-09T17:57:38.163Z,4.70
2019-01-09T18:00:16.577Z,4.60
2019-01-09T18:02:42.620Z,4.60
2019-01-09T18:05:08.655Z,4.50
2019-01-09T18:07:34.696Z,4.50
2019-01-09T18:10:00.763Z,4.50
2019-01-09T18:12:26.831Z,4.40
2019-01-09T18:14:52.857Z,4.40
2019-01-09T18:17:19.563Z,4.60
2019-01-09T18:19:45.783Z,4.60
2019-01-09T18:22:11.803Z,4.70
2019-01-09T18:24:37.940Z,4.80
2019-01-09T18:27:03.970Z,4.80
2019-01-09T18:29:30.077Z,4.90
2019-01-09T18:32:05.952Z,4.90
2019-01-09T18:34:32.019Z,5.00
2019-01-09T18:37:01.868Z,5.00
2019-01-09T18:39:31.776Z,5.10
2019-01-09T18:42:08.984Z,5.10
2019-01-09T18:44:56.867Z,5.10
2019-01-09T18:47:47.877Z,5.10
2019-01-09T18:50:40.531Z,5.10
2019-01-09T18:53:10.363Z,5.00
2019-01-09T18:55:36.456Z,4.80
2019-01-09T18:58:02.880Z,4.90
2019-01-09T19:00:28.903Z,4.90
2019-01-09T19:02:54.947Z,4.90
2019-01-09T19:05:20.979Z,4.90
2019-01-09T19:07:47.137Z,4.90
2019-01-09T19:10:18.465Z,4.90
2019-01-09T19:12:44.572Z,4.90
2019-01-09T19:15:32.557Z,4.90
2019-01-09T19:17:58.714Z,5.00
2019-01-09T19:20:24.727Z,5.00
2019-01-09T19:22:51.186Z,4.90
2019-01-09T19:25:17.200Z,4.90
2019-01-09T19:27:43.255Z,5.00
2019-01-09T19:30:19.249Z,5.00
2019-01-09T19:32:45.303Z,4.90
2019-01-09T19:35:11.634Z,4.90
2019-01-09T19:37:37.736Z,4.90
2019-01-09T19:40:07.081Z,4.90
2019-01-09T19:42:33.155Z,4.80
2019-01-09T19:44:59.560Z,4.90
2019-01-09T19:47:25.576Z,4.90
2019-01-09T19:49:51.623Z,4.80
2019-01-09T19:52:17.667Z,4.90
2019-01-09T19:54:44.103Z,4.90
2019-01-09T19:57:10.176Z,4.90
2019-01-09T19:59:36.205Z,4.90
2019-01-09T20:02:02.241Z,4.80
2019-01-09T20:04:28.379Z,4.90
2019-01-09T20:06:54.494Z,4.90
2019-01-09T20:09:20.603Z,5.00
2019-01-09T20:11:46.775Z,5.00
2019-01-09T20:14:12.869Z,4.90
2019-01-09T20:16:38.944Z,5.00
2019-01-09T20:19:05.059Z,4.90
2019-01-09T20:21:31.064Z,4.90
2019-01-09T20:23:57.108Z,4.90
2019-01-09T20:26:23.309Z,5.00
2019-01-09T20:28:49.512Z,5.00
2019-01-09T20:31:15.564Z,5.00
2019-01-09T20:33:41.605Z,5.00
2019-01-09T20:36:07.777Z,5.00
2019-01-09T20:38:34.700Z,5.00
2019-01-09T20:41:00.727Z,5.00
2019-01-09T20:43:26.784Z,5.10
2019-01-09T20:45:52.834Z,5.00
2019-01-09T20:48:20.209Z,5.00
2019-01-09T20:50:46.782Z,5.00
2019-01-09T20:53:12.985Z,5.00
2019-01-09T20:55:40.988Z,5.00
2019-01-09T20:58:07.206Z,4.90
2019-01-09T21:00:33.409Z,5.00
2019-01-09T21:03:00.296Z,4.90
2019-01-09T21:05:30.084Z,4.90
2019-01-09T21:07:56.242Z,4.90
2019-01-09T21:10:22.570Z,4.90
2019-01-09T21:12:49.346Z,5.00
2019-01-09T21:15:17.279Z,5.00
2019-01-09T21:17:43.325Z,5.00
2019-01-09T21:20:12.672Z,5.00
2019-01-09T21:22:38.811Z,5.00
2019-01-09T21:25:06.035Z,5.00
2019-01-09T21:27:32.128Z,5.00
2019-01-09T21:29:58.152Z,5.00
2019-01-09T21:32:24.462Z,5.00
2019-01-09T21:34:50.803Z,5.10
2019-01-09T21:37:16.863Z,5.00
2019-01-09T21:39:43.500Z,4.80
2019-01-09T21:42:09.532Z,4.80
2019-01-09T21:44:38.596Z,4.80
2019-01-09T21:47:04.632Z,4.80
2019-01-09T21:49:30.672Z,4.70
2019-01-09T21:51:56.776Z,4.80
2019-01-09T21:54:22.835Z,4.70
2019-01-09T21:56:48.868Z,4.70
2019-01-09T21:59:14.894Z,4.70
2019-01-09T22:01:40.968Z,4.70
2019-01-09T22:04:06.969Z,4.70
2019-01-09T22:06:33.032Z,4.80
2019-01-09T22:09:03.012Z,4.80
2019-01-09T22:11:29.141Z,4.70
2019-01-09T22:13:55.211Z,4.70
2019-01-09T22:16:21.337Z,4.90
2019-01-09T22:18:47.392Z,4.90
2019-01-09T22:21:13.720Z,4.90
2019-01-09T22:23:39.752Z,4.90
2019-01-09T22:26:05.803Z,4.90
2019-01-09T22:28:32.067Z,5.00
2019-01-09T22:30:58.105Z,5.10
2019-01-09T22:33:24.140Z,5.10
2019-01-09T22:35:51.272Z,5.10
2019-01-09T22:38:17.336Z,5.00
2019-01-09T22:40:43.373Z,5.00
2019-01-09T22:43:09.596Z,5.00
2019-01-09T22:45:35.615Z,5.00
2019-01-09T22:48:01.659Z,5.00
2019-01-09T22:50:27.792Z,5.00
2019-01-09T22:52:53.897Z,5.10
2019-01-09T22:55:20.071Z,5.00
2019-01-09T22:57:46.283Z,4.90
2019-01-09T23:00:46.808Z,4.80
2019-01-09T23:03:12.980Z,4.80
2019-01-09T23:05:40.996Z,4.90
2019-01-09T23:08:07.041Z,4.90
2019-01-09T23:10:33.084Z,4.80
2019-01-09T23:12:59.152Z,4.60
2019-01-09T23:15:25.175Z,4.40
2019-01-09T23:17:51.327Z,4.50
2019-01-09T23:20:21.868Z,4.50
2019-01-09T23:22:47.903Z,4.30
2019-01-09T23:25:14.149Z,4.50
2019-01-09T23:27:47.697Z,4.50
2019-01-09T23:30:14.140Z,4.40
2019-01-09T23:32:40.194Z,4.40
2019-01-09T23:35:10.213Z,4.40
2019-01-09T23:37:36.244Z,4.50
2019-01-09T23:40:05.894Z,4.40
2019-01-09T23:42:32.190Z,4.40
2019-01-09T23:44:58.419Z,4.40
2019-01-09T23:47:24.504Z,4.30
2019-01-09T23:49:50.544Z,4.20
2019-01-09T23:52:16.691Z,4.30
2019-01-09T23:54:42.803Z,4.30
2019-01-09T23:57:09.470Z,4.30
2019-01-09T23:59:35.543Z,4.40
